createdAt,value
2023-02-04T00:00:37.095Z,98.10
2023-02-04T00:03:05.466Z,98.00
2023-02-04T00:05:35.260Z,97.70
2023-02-04T00:08:03.920Z,97.70
2023-02-04T00:10:32.298Z,97.90
2023-02-04T00:13:00.488Z,97.90
2023-02-04T00:15:28.663Z,98.00
2023-02-04T00:17:56.780Z,98.10
2023-02-04T00:20:25.171Z,98.10
2023-02-04T00:22:54.989Z,98.20
2023-02-04T00:25:22.921Z,98.10
2023-02-04T00:27:50.831Z,98.40
2023-02-04T00:30:18.969Z,98.30
2023-02-04T00:32:46.963Z,98.50
2023-02-04T00:35:14.908Z,98.10
2023-02-04T00:37:42.829Z,98.30
2023-02-04T00:40:13.648Z,98.20
2023-02-04T00:42:41.933Z,98.20
2023-02-04T00:45:11.133Z,98.20
2023-02-04T00:47:39.079Z,98.30
2023-02-04T00:50:07.924Z,98.30
2023-02-04T00:52:35.860Z,98.30
2023-02-04T00:55:03.828Z,98.30
2023-02-04T00:57:33.250Z,98.20
2023-02-04T01:00:01.220Z,98.10
2023-02-04T01:02:29.202Z,98.20
2023-02-04T01:04:57.173Z,98.20
2023-02-04T01:07:25.218Z,97.90
2023-02-04T01:09:53.165Z,98.00
2023-02-04T01:12:22.843Z,98.10
2023-02-04T01:14:52.788Z,98.20
2023-02-04T01:17:21.334Z,98.20
2023-02-04T01:19:49.737Z,98.00
2023-02-04T01:22:17.666Z,98.00
2023-02-04T01:24:45.584Z,98.00
2023-02-04T01:27:13.473Z,97.90
2023-02-04T01:29:41.376Z,98.00
2023-02-04T01:32:10.596Z,98.00
2023-02-04T01:34:38.526Z,97.90
2023-02-04T01:37:06.680Z,97.90
2023-02-04T01:39:34.884Z,97.90
2023-02-04T01:42:02.824Z,97.70
2023-02-04T01:44:31.269Z,97.60
2023-02-04T01:46:59.437Z,97.60
2023-02-04T01:49:29.811Z,97.80
2023-02-04T01:51:57.921Z,97.60
2023-02-04T01:54:27.779Z,97.70
2023-02-04T01:56:56.102Z,97.70
2023-02-04T01:59:24.673Z,97.70
2023-02-04T02:01:53.898Z,97.90
2023-02-04T02:04:27.824Z,97.90
2023-02-04T02:06:59.634Z,98.10
2023-02-04T02:09:28.609Z,98.00
2023-02-04T02:11:56.670Z,98.00
2023-02-04T02:14:24.662Z,97.80
2023-02-04T02:16:52.788Z,98.10
2023-02-04T02:19:26.623Z,98.20
2023-02-04T02:22:03.525Z,98.20
2023-02-04T02:24:34.484Z,98.70
2023-02-04T02:27:07.136Z,99.30
2023-02-04T02:29:35.716Z,99.70
2023-02-04T02:32:03.902Z,99.90
2023-02-04T02:34:32.189Z,99.90
2023-02-04T02:37:01.393Z,99.90
2023-02-04T02:39:29.777Z,99.90
2023-02-04T02:42:00.107Z,99.90
2023-02-04T02:44:28.985Z,99.90
2023-02-04T02:46:57.073Z,99.90
2023-02-04T02:49:24.988Z,99.90
2023-02-04T02:51:52.912Z,99.90
2023-02-04T02:54:24.610Z,99.90
2023-02-04T02:56:52.882Z,99.90
2023-02-04T02:59:22.413Z,99.90
2023-02-04T03:01:52.541Z,99.90
2023-02-04T03:04:22.270Z,99.90
2023-02-04T03:06:51.762Z,99.90
2023-02-04T03:09:20.433Z,99.90
2023-02-04T03:11:48.864Z,99.90
2023-02-04T03:14:16.950Z,99.90
2023-02-04T03:16:48.148Z,99.90
2023-02-04T03:19:16.228Z,99.90
2023-02-04T03:21:44.752Z,99.90
2023-02-04T03:24:13.129Z,99.90
2023-02-04T03:26:41.124Z,99.90
2023-02-04T03:29:10.031Z,99.90
2023-02-04T03:31:38.765Z,99.90
2023-02-04T03:34:08.267Z,99.90
2023-02-04T03:36:36.529Z,99.90
2023-02-04T03:39:04.912Z,99.90
2023-02-04T03:41:32.937Z,99.90
2023-02-04T03:44:00.850Z,99.90
2023-02-04T03:46:28.886Z,99.90
2023-02-04T03:48:57.035Z,99.90
2023-02-04T03:51:26.387Z,99.90
2023-02-04T03:53:54.309Z,99.90
2023-02-04T03:56:22.797Z,99.90
2023-02-04T03:58:50.868Z,99.90
2023-02-04T04:01:18.938Z,99.90
2023-02-04T04:03:46.904Z,99.90
2023-02-04T04:06:14.828Z,99.90
2023-02-04T04:08:44.127Z,99.90
2023-02-04T04:11:12.536Z,99.90
2023-02-04T04:13:40.583Z,99.90
2023-02-04T04:16:09.081Z,99.90
2023-02-04T04:18:37.374Z,99.90
2023-02-04T04:21:05.512Z,99.70
2023-02-04T04:23:33.545Z,99.70
2023-02-04T04:26:02.859Z,98.60
2023-02-04T04:28:30.953Z,98.80
2023-02-04T04:30:58.983Z,98.70
2023-02-04T04:33:26.966Z,98.70
2023-02-04T04:35:54.919Z,98.70
2023-02-04T04:38:22.943Z,98.90
2023-02-04T04:40:50.996Z,98.70
2023-02-04T04:43:20.922Z,98.80
2023-02-04T04:45:48.856Z,98.80
2023-02-04T04:48:16.949Z,99.00
2023-02-04T04:50:44.889Z,98.90
2023-02-04T04:53:12.784Z,99.00
2023-02-04T04:55:40.732Z,99.10
2023-02-04T04:58:09.108Z,99.20
2023-02-04T05:00:38.471Z,99.20
2023-02-04T05:03:06.367Z,99.60
2023-02-04T05:05:39.798Z,99.50
2023-02-04T05:08:10.870Z,99.50
2023-02-04T05:10:38.920Z,99.40
2023-02-04T05:13:07.112Z,99.60
2023-02-04T05:15:35.195Z,99.70
2023-02-04T05:18:04.734Z,99.10
2023-02-04T05:20:33.127Z,99.20
2023-02-04T05:23:03.103Z,98.90
2023-02-04T05:25:31.902Z,98.70
2023-02-04T05:28:00.017Z,98.60
2023-02-04T05:30:28.040Z,98.50
2023-02-04T05:32:55.993Z,98.90
2023-02-04T05:35:25.562Z,99.80
2023-02-04T05:37:53.505Z,99.90
2023-02-04T05:40:21.655Z,99.90
2023-02-04T05:42:49.684Z,99.90
2023-02-04T05:45:18.930Z,99.90
2023-02-04T05:47:46.887Z,99.90
2023-02-04T05:50:15.139Z,99.90
2023-02-04T05:52:44.420Z,99.70
2023-02-04T05:55:13.473Z,98.90
2023-02-04T05:57:41.518Z,98.80
2023-02-04T06:00:13.204Z,98.10
2023-02-04T06:02:41.191Z,98.10
2023-02-04T06:05:09.371Z,97.80
2023-02-04T06:07:37.713Z,97.70
2023-02-04T06:10:07.670Z,97.50
2023-02-04T06:12:35.622Z,97.40
2023-02-04T06:15:03.606Z,97.40
2023-02-04T06:17:31.623Z,97.40
2023-02-04T06:19:59.596Z,97.70
2023-02-04T06:22:27.533Z,97.50
2023-02-04T06:24:55.461Z,97.00
2023-02-04T06:27:24.779Z,97.20
2023-02-04T06:29:53.897Z,97.30
2023-02-04T06:32:22.549Z,97.40
2023-02-04T06:34:51.093Z,97.30
2023-02-04T06:37:19.064Z,97.30
2023-02-04T06:39:46.978Z,97.40
2023-02-04T06:42:14.894Z,97.30
2023-02-04T06:44:44.200Z,97.10
2023-02-04T06:47:12.115Z,97.30
2023-02-04T06:49:39.972Z,97.20
2023-02-04T06:52:08.085Z,97.30
2023-02-04T06:54:36.161Z,96.80
2023-02-04T06:57:06.697Z,96.60
2023-02-04T06:59:35.017Z,96.50
2023-02-04T07:02:05.347Z,96.10
2023-02-04T07:04:33.433Z,96.00
2023-02-04T07:07:01.408Z,95.80
2023-02-04T07:09:29.427Z,95.80
2023-02-04T07:11:57.473Z,95.80
2023-02-04T07:14:25.391Z,95.70
2023-02-04T07:16:53.426Z,95.50
2023-02-04T07:19:22.781Z,95.10
2023-02-04T07:21:53.877Z,95.00
2023-02-04T07:24:22.092Z,95.00
2023-02-04T07:26:50.371Z,94.70
2023-02-04T07:29:25.176Z,95.00
2023-02-04T07:31:53.831Z,94.90
2023-02-04T07:34:23.503Z,94.40
2023-02-04T07:36:51.559Z,94.50
2023-02-04T07:39:21.768Z,94.30
2023-02-04T07:41:49.731Z,93.80
2023-02-04T07:44:17.652Z,93.90
2023-02-04T07:46:45.602Z,93.70
2023-02-04T07:49:13.516Z,93.80
2023-02-04T07:51:43.215Z,92.90
2023-02-04T07:54:11.305Z,92.70
2023-02-04T07:56:39.437Z,92.90
2023-02-04T07:59:07.412Z,93.30
2023-02-04T08:01:35.497Z,93.60
2023-02-04T08:04:03.493Z,93.20
2023-02-04T08:06:31.705Z,93.10
2023-02-04T08:09:00.941Z,93.50
2023-02-04T08:11:28.859Z,93.90
2023-02-04T08:13:56.761Z,93.70
2023-02-04T08:16:24.887Z,93.70
2023-02-04T08:18:52.824Z,94.20
2023-02-04T08:21:21.041Z,94.00
2023-02-04T08:23:49.178Z,94.10
2023-02-04T08:26:18.837Z,93.40
2023-02-04T08:28:47.599Z,93.60
2023-02-04T08:31:15.729Z,93.50
2023-02-04T08:33:43.773Z,93.30
2023-02-04T08:36:11.831Z,93.70
2023-02-04T08:38:40.533Z,94.10
2023-02-04T08:41:08.633Z,93.80
2023-02-04T08:43:38.107Z,93.90
2023-02-04T08:46:06.786Z,93.40
2023-02-04T08:48:34.781Z,93.50
2023-02-04T08:51:02.813Z,93.50
2023-02-04T08:53:30.704Z,93.40
2023-02-04T08:55:58.632Z,93.30
2023-02-04T08:58:26.603Z,93.90
2023-02-04T09:00:55.870Z,93.20
2023-02-04T09:03:23.851Z,93.30
2023-02-04T09:05:51.753Z,93.70
2023-02-04T09:08:19.652Z,93.30
2023-02-04T09:10:47.647Z,93.30
2023-02-04T09:13:15.545Z,92.80
2023-02-04T09:15:43.482Z,92.20
2023-02-04T09:18:16.415Z,92.40
2023-02-04T09:20:44.613Z,92.10
2023-02-04T09:23:13.331Z,92.10
2023-02-04T09:25:41.957Z,91.90
2023-02-04T09:28:11.551Z,91.60
2023-02-04T09:30:40.347Z,92.00
2023-02-04T09:33:09.226Z,91.90
2023-02-04T09:35:39.001Z,92.10
2023-02-04T09:38:07.625Z,92.10
2023-02-04T09:40:37.962Z,92.00
2023-02-04T09:43:07.222Z,91.90
2023-02-04T09:45:37.322Z,91.30
2023-02-04T09:48:10.027Z,91.30
2023-02-04T09:50:39.624Z,91.40
2023-02-04T09:53:10.856Z,91.10
2023-02-04T09:55:41.147Z,91.70
2023-02-04T09:58:16.014Z,91.00
2023-02-04T10:00:44.281Z,91.30
2023-02-04T10:03:17.095Z,90.80
2023-02-04T10:05:47.745Z,90.80
2023-02-04T10:08:18.013Z,91.40
2023-02-04T10:10:47.078Z,90.50
2023-02-04T10:13:19.309Z,90.70
2023-02-04T10:15:48.690Z,90.90
2023-02-04T10:18:24.064Z,91.20
2023-02-04T10:20:53.815Z,90.50
2023-02-04T10:23:22.073Z,89.60
2023-02-04T10:25:50.015Z,90.20
2023-02-04T10:28:18.454Z,90.20
2023-02-04T10:30:47.165Z,90.10
2023-02-04T10:33:17.297Z,90.60
2023-02-04T10:35:47.216Z,90.10
2023-02-04T10:38:16.702Z,90.80
2023-02-04T10:40:46.058Z,90.50
2023-02-04T10:43:17.532Z,90.40
2023-02-04T10:45:47.526Z,90.40
2023-02-04T10:48:18.373Z,90.10
2023-02-04T10:50:47.634Z,90.50
2023-02-04T10:53:39.612Z,90.30
2023-02-04T10:56:16.911Z,90.20
2023-02-04T10:58:45.272Z,90.30
2023-02-04T11:01:14.570Z,90.40
2023-02-04T11:03:44.325Z,90.70
2023-02-04T11:06:16.657Z,90.60
2023-02-04T11:08:46.090Z,90.60
2023-02-04T11:11:18.672Z,89.90
2023-02-04T11:14:00.766Z,90.40
2023-02-04T11:16:31.429Z,90.50
2023-02-04T11:19:01.723Z,90.50
2023-02-04T11:21:42.556Z,90.90
2023-02-04T11:24:25.822Z,90.10
2023-02-04T11:26:54.978Z,90.80
2023-02-04T11:29:36.817Z,91.30
2023-02-04T11:32:06.836Z,90.10
2023-02-04T11:34:51.210Z,89.20
2023-02-04T11:37:38.448Z,89.30
2023-02-04T11:40:27.524Z,90.40
2023-02-04T11:43:03.246Z,90.10
2023-02-04T11:45:34.132Z,87.90
2023-02-04T11:48:04.870Z,89.50
2023-02-04T11:50:34.510Z,88.30
2023-02-04T11:53:03.584Z,86.50
2023-02-04T11:55:36.255Z,86.10
2023-02-04T11:58:05.417Z,86.10
2023-02-04T12:00:34.449Z,86.80
2023-02-04T12:03:06.250Z,87.20
2023-02-04T12:05:41.752Z,88.00
2023-02-04T12:08:24.250Z,87.70
2023-02-04T12:11:07.458Z,86.90
2023-02-04T12:13:46.677Z,85.90
2023-02-04T12:16:15.172Z,86.90
2023-02-04T12:18:43.236Z,86.30
2023-02-04T12:21:11.433Z,87.50
2023-02-04T12:23:39.412Z,87.30
2023-02-04T12:26:08.950Z,87.70
2023-02-04T12:28:36.884Z,88.60
2023-02-04T12:31:05.265Z,85.80
2023-02-04T12:33:33.532Z,86.30
2023-02-04T12:36:01.575Z,87.80
2023-02-04T12:38:29.537Z,87.90
2023-02-04T12:40:57.403Z,87.90
2023-02-04T12:43:28.324Z,88.00
2023-02-04T12:45:56.553Z,89.90
2023-02-04T12:48:26.012Z,90.20
2023-02-04T12:50:54.088Z,90.40
2023-02-04T12:53:22.384Z,90.80
2023-02-04T12:55:50.304Z,91.40
2023-02-04T12:58:18.195Z,91.50
2023-02-04T13:00:47.543Z,91.20
2023-02-04T13:03:15.437Z,91.50
2023-02-04T13:05:43.415Z,92.30
2023-02-04T13:08:11.272Z,91.50
2023-02-04T13:10:39.399Z,89.30
2023-02-04T13:13:07.342Z,90.20
2023-02-04T13:15:35.278Z,90.60
2023-02-04T13:18:04.761Z,90.10
2023-02-04T13:20:32.632Z,88.80
2023-02-04T13:23:00.641Z,87.40
2023-02-04T13:25:28.576Z,88.70
2023-02-04T13:27:56.543Z,89.40
2023-02-04T13:30:24.511Z,89.70
2023-02-04T13:32:52.398Z,90.40
2023-02-04T13:35:21.692Z,90.00
2023-02-04T13:37:49.741Z,90.50
2023-02-04T13:40:17.980Z,90.70
2023-02-04T13:42:45.937Z,90.40
2023-02-04T13:45:16.134Z,90.00
2023-02-04T13:47:44.003Z,90.10
2023-02-04T13:50:11.953Z,89.40
2023-02-04T13:52:41.248Z,90.20
2023-02-04T13:55:09.470Z,90.20
2023-02-04T13:57:38.155Z,89.60
2023-02-04T14:00:07.439Z,90.50
2023-02-04T14:02:35.440Z,90.60
2023-02-04T14:05:03.392Z,90.70
2023-02-04T14:07:33.262Z,90.60
2023-02-04T14:10:02.679Z,89.60
2023-02-04T14:12:30.593Z,88.10
2023-02-04T14:14:58.535Z,86.60
2023-02-04T14:17:26.421Z,86.20
2023-02-04T14:19:54.322Z,84.70
2023-02-04T14:22:22.245Z,85.70
2023-02-04T14:24:50.306Z,85.60
2023-02-04T14:27:19.685Z,85.10
2023-02-04T14:29:47.581Z,84.40
2023-02-04T14:32:15.531Z,83.20
2023-02-04T14:34:43.486Z,82.10
2023-02-04T14:37:11.657Z,82.50
2023-02-04T14:39:39.555Z,82.60
2023-02-04T14:42:07.466Z,83.80
2023-02-04T14:44:37.005Z,83.00
2023-02-04T14:47:05.034Z,84.50
2023-02-04T14:49:33.033Z,84.00
2023-02-04T14:52:01.098Z,83.40
2023-02-04T14:54:29.070Z,83.20
2023-02-04T14:56:57.160Z,84.10
2023-02-04T14:59:25.183Z,83.00
2023-02-04T15:01:54.476Z,82.90
2023-02-04T15:04:22.363Z,82.90
2023-02-04T15:06:55.753Z,83.10
2023-02-04T15:09:23.633Z,82.50
2023-02-04T15:11:51.994Z,82.90
2023-02-04T15:14:20.255Z,83.40
2023-02-04T15:16:49.262Z,84.10
2023-02-04T15:19:19.456Z,84.00
2023-02-04T15:21:47.411Z,85.30
2023-02-04T15:27:07.813Z,87.50
2023-02-04T15:29:36.068Z,87.40
2023-02-04T15:32:04.181Z,88.30
2023-02-04T15:34:33.484Z,87.20
2023-02-04T15:37:01.530Z,87.80
2023-02-04T15:39:29.480Z,88.40
2023-02-04T15:41:57.340Z,88.50
2023-02-04T15:44:26.637Z,88.50
2023-02-04T15:46:55.186Z,88.10
2023-02-04T15:49:23.089Z,88.60
2023-02-04T15:51:52.385Z,88.80
2023-02-04T15:54:20.352Z,88.90
2023-02-04T15:56:48.276Z,88.50
2023-02-04T15:59:16.549Z,88.40
2023-02-04T16:01:44.596Z,88.60
2023-02-04T16:04:12.581Z,88.60
2023-02-04T16:06:44.970Z,88.50
2023-02-04T16:09:19.601Z,87.80
2023-02-04T16:11:47.598Z,88.40
2023-02-04T16:14:15.507Z,88.30
2023-02-04T16:16:43.402Z,89.30
2023-02-04T16:19:11.368Z,90.10
2023-02-04T16:21:39.264Z,89.40
2023-02-04T16:24:07.816Z,89.90
2023-02-04T16:26:37.052Z,90.20
2023-02-04T16:29:05.048Z,89.80
2023-02-04T16:31:33.028Z,89.40
2023-02-04T16:34:01.048Z,89.90
2023-02-04T16:36:28.945Z,89.90
2023-02-04T16:38:58.882Z,89.40
2023-02-04T16:41:26.817Z,89.10
2023-02-04T16:43:56.137Z,89.20
2023-02-04T16:46:24.178Z,89.00
2023-02-04T16:48:52.267Z,89.00
2023-02-04T16:51:20.424Z,89.30
2023-02-04T16:53:48.408Z,89.20
2023-02-04T16:56:16.372Z,89.10
2023-02-04T16:58:44.760Z,89.20
2023-02-04T17:01:17.093Z,89.40
2023-02-04T17:03:45.336Z,88.80
2023-02-04T17:06:16.291Z,88.40
2023-02-04T17:08:44.240Z,89.10
2023-02-04T17:11:31.348Z,89.60
2023-02-04T17:14:00.987Z,89.90
2023-02-04T17:16:31.238Z,90.30
2023-02-04T17:18:59.698Z,91.00
2023-02-04T17:21:29.168Z,90.70
2023-02-04T17:24:00.136Z,91.00
2023-02-04T17:26:28.037Z,91.10
2023-02-04T17:28:55.986Z,91.20
2023-02-04T17:31:23.921Z,91.60
2023-02-04T17:33:53.532Z,91.80
2023-02-04T17:36:21.418Z,91.80
2023-02-04T17:38:50.096Z,92.10
2023-02-04T17:41:18.004Z,92.00
2023-02-04T17:43:46.058Z,91.80
2023-02-04T17:46:14.049Z,91.70
2023-02-04T17:48:41.962Z,91.50
2023-02-04T17:51:11.248Z,91.10
2023-02-04T17:53:40.356Z,91.80
2023-02-04T17:56:11.874Z,91.20
2023-02-04T17:58:40.269Z,91.20
2023-02-04T18:01:12.320Z,91.10
2023-02-04T18:03:42.529Z,91.10
2023-02-04T18:06:22.258Z,91.00
2023-02-04T18:08:51.063Z,91.10
2023-02-04T18:11:21.341Z,91.10
2023-02-04T18:13:49.616Z,91.00
2023-02-04T18:16:25.156Z,90.90
2023-02-04T18:18:55.241Z,90.80
2023-02-04T18:21:26.298Z,91.00
2023-02-04T18:24:07.959Z,90.90
2023-02-04T18:26:40.401Z,91.00
2023-02-04T18:29:31.203Z,90.70
2023-02-04T18:32:02.599Z,90.40
2023-02-04T18:34:36.149Z,90.70
2023-02-04T18:37:31.166Z,90.60
2023-02-04T18:40:27.475Z,90.70
2023-02-04T18:43:05.459Z,90.70
2023-02-04T18:45:34.041Z,90.70
2023-02-04T18:48:22.863Z,90.80
2023-02-04T18:50:52.424Z,91.30
2023-02-04T18:53:26.104Z,91.10
2023-02-04T18:55:57.748Z,91.10
2023-02-04T18:58:31.165Z,91.10
2023-02-04T19:01:01.172Z,91.20
2023-02-04T19:03:31.024Z,91.10
2023-02-04T19:06:02.344Z,91.40
2023-02-04T19:08:43.940Z,91.60
2023-02-04T19:11:23.366Z,91.70
2023-02-04T19:13:53.660Z,92.10
2023-02-04T19:16:24.157Z,92.40
2023-02-04T19:18:53.620Z,92.80
2023-02-04T19:21:28.609Z,92.60
2023-02-04T19:24:02.637Z,92.60
2023-02-04T19:26:34.658Z,92.30
2023-02-04T19:29:24.718Z,92.40
2023-02-04T19:31:55.363Z,92.50
2023-02-04T19:34:26.075Z,92.60
2023-02-04T19:36:55.478Z,92.40
2023-02-04T19:39:38.375Z,92.50
2023-02-04T19:42:25.094Z,92.20
2023-02-04T19:44:53.312Z,92.40
2023-02-04T19:47:26.850Z,92.30
2023-02-04T19:50:02.958Z,92.10
2023-02-04T19:52:36.563Z,91.90
2023-02-04T19:55:36.314Z,92.00
2023-02-04T19:58:16.422Z,92.00
2023-02-04T20:00:46.941Z,92.20
2023-02-04T20:03:30.878Z,92.20
2023-02-04T20:06:01.861Z,92.40
2023-02-04T20:08:47.542Z,92.30
2023-02-04T20:11:45.032Z,92.20
2023-02-04T20:14:26.554Z,92.50
2023-02-04T20:16:57.466Z,92.40
2023-02-04T20:19:35.195Z,92.40
2023-02-04T20:22:41.281Z,92.40
2023-02-04T20:25:40.588Z,92.20
2023-02-04T20:28:21.908Z,92.30
2023-02-04T20:30:50.833Z,92.30
2023-02-04T20:33:29.334Z,92.60
2023-02-04T20:36:34.335Z,92.80
2023-02-04T20:39:39.938Z,92.90
2023-02-04T20:42:33.326Z,93.30
2023-02-04T20:45:25.322Z,93.90
2023-02-04T20:47:57.375Z,94.00
2023-02-04T20:50:38.126Z,94.20
2023-02-04T20:53:26.749Z,94.50
2023-02-04T20:56:03.497Z,94.30
2023-02-04T20:58:36.798Z,94.30
2023-02-04T21:01:20.345Z,94.40
2023-02-04T21:03:50.075Z,94.70
2023-02-04T21:06:27.521Z,96.00
2023-02-04T21:08:56.903Z,97.00
2023-02-04T21:11:25.521Z,97.20
2023-02-04T21:13:55.092Z,97.40
2023-02-04T21:16:24.382Z,97.40
2023-02-04T21:18:54.038Z,97.80
2023-02-04T21:21:24.377Z,98.00
2023-02-04T21:23:52.280Z,98.30
2023-02-04T21:26:20.237Z,98.30
2023-02-04T21:28:48.137Z,98.40
2023-02-04T21:31:16.201Z,98.50
2023-02-04T21:33:45.464Z,98.50
2023-02-04T21:36:13.390Z,98.60
2023-02-04T21:38:41.309Z,98.50
2023-02-04T21:41:09.206Z,98.40
2023-02-04T21:43:37.085Z,98.50
2023-02-04T21:46:05.136Z,98.80
2023-02-04T21:48:33.100Z,99.00
2023-02-04T21:51:02.452Z,99.10
2023-02-04T21:53:30.325Z,98.60
2023-02-04T21:55:59.414Z,98.60
2023-02-04T21:58:27.603Z,98.20
2023-02-04T22:00:55.530Z,98.10
2023-02-04T22:03:23.480Z,98.10
2023-02-04T22:05:51.451Z,97.90
2023-02-04T22:08:20.791Z,98.10
2023-02-04T22:10:48.723Z,98.20
2023-02-04T22:13:34.081Z,98.80
2023-02-04T22:16:02.065Z,99.30
2023-02-04T22:18:30.008Z,99.40
2023-02-04T22:20:57.904Z,99.30
2023-02-04T22:23:27.177Z,99.60
2023-02-04T22:25:55.078Z,99.90
2023-02-04T22:28:23.025Z,99.90
2023-02-04T22:30:53.281Z,99.90
2023-02-04T22:33:22.077Z,99.90
2023-02-04T22:35:50.037Z,99.90
2023-02-04T22:38:19.977Z,99.90
2023-02-04T22:40:50.046Z,99.90
2023-02-04T22:43:17.960Z,99.90
2023-02-04T22:45:45.869Z,99.90
2023-02-04T22:48:13.760Z,99.90
2023-02-04T22:50:41.698Z,99.90
2023-02-04T22:53:09.825Z,99.90
2023-02-04T22:55:37.694Z,99.90
2023-02-04T22:58:07.506Z,99.90
2023-02-04T23:00:35.457Z,99.90
2023-02-04T23:03:03.499Z,99.90
2023-02-04T23:05:32.173Z,99.90
2023-02-04T23:08:00.333Z,99.90
2023-02-04T23:10:28.234Z,99.90
2023-02-04T23:12:56.437Z,99.90
2023-02-04T23:15:25.926Z,99.90
2023-02-04T23:17:54.119Z,99.90
2023-02-04T23:20:22.024Z,99.90
2023-02-04T23:22:50.035Z,99.80
2023-02-04T23:25:18.229Z,99.90
2023-02-04T23:27:46.170Z,99.90
2023-02-04T23:30:14.912Z,99.90
2023-02-04T23:32:44.229Z,99.50
2023-02-04T23:35:12.185Z,99.00
2023-02-04T23:37:40.160Z,98.60
2023-02-04T23:40:08.904Z,98.70
2023-02-04T23:42:36.904Z,98.50
2023-02-04T23:45:05.577Z,98.20
2023-02-04T23:47:33.493Z,98.90
2023-02-04T23:50:02.830Z,99.00
2023-02-04T23:52:30.818Z,99.10
2023-02-04T23:54:58.859Z,98.60
2023-02-04T23:57:27.003Z,99.00
2023-02-04T23:59:54.928Z,99.20
